Time;durP1;ratioP1;P1;durP2;ratioP2;P2;SDS_P1;SDS_P2;PMS_P1;PMS_P2;Temp;Humidity;BMP_temperature;BMP_pressure;BME280_temperature;BME280_humidity;BME280_pressure;Samples;Min_cycle;Max_cycle;Signal;HPM_P1;HPM_P2
2023/08/22 00:00:31;;;;;;;19.67;10.00;;;;;;;25.93;nan;95589.91;5073700;28;20054;-80
2023/08/22 00:02:58;;;;;;;16.48;10.82;;;;;;;25.95;nan;95590.31;5074959;28;20407;-80
2023/08/22 00:05:23;;;;;;;22.45;10.57;;;;;;;25.87;nan;95583.19;5074500;28;20036;-81
2023/08/22 00:07:49;;;;;;;16.25;10.57;;;;;;;25.81;nan;95560.97;5073667;28;20028;-80
2023/08/22 00:10:15;;;;;;;14.88;9.85;;;;;;;25.69;nan;95563.88;5075398;28;20024;-80
2023/08/22 00:12:42;;;;;;;20.50;9.90;;;;;;;25.91;nan;95573.97;5073527;28;20429;-80
2023/08/22 00:15:10;;;;;;;12.15;8.90;;;;;;;25.82;nan;95580.78;5074629;28;20039;-81
2023/08/22 00:17:40;;;;;;;14.20;8.70;;;;;;;25.79;nan;95579.56;5073824;28;20028;-81
2023/08/22 00:20:08;;;;;;;17.17;9.52;;;;;;;25.45;nan;95521.50;5073282;28;20056;-80
2023/08/22 00:22:37;;;;;;;9.40;8.40;;;;;;;25.64;nan;95553.28;5077686;28;20522;-81
2023/08/22 00:25:04;;;;;;;19.95;8.95;;;;;;;25.71;nan;95565.06;5077845;28;20111;-80
2023/08/22 00:27:30;;;;;;;11.70;8.80;;;;;;;25.62;nan;95542.03;5075081;28;20028;-81
2023/08/22 00:29:56;;;;;;;12.77;8.75;;;;;;;25.86;nan;95582.41;5074978;28;20041;-80
2023/08/22 00:32:22;;;;;;;19.35;8.90;;;;;;;25.71;nan;95554.19;5076034;28;20033;-80
2023/08/22 00:34:47;;;;;;;16.58;8.77;;;;;;;25.67;nan;95545.22;5073469;28;20605;-81
2023/08/22 00:37:13;;;;;;;12.75;8.93;;;;;;;25.81;nan;95557.47;5074055;28;20097;-81
2023/08/22 00:39:38;;;;;;;16.02;8.65;;;;;;;25.58;nan;95543.84;5075082;28;20418;-80
2023/08/22 00:42:04;;;;;;;17.27;9.07;;;;;;;25.72;nan;95566.63;5073914;28;20032;-80
2023/08/22 00:44:29;;;;;;;13.95;9.50;;;;;;;25.52;nan;95561.56;5074816;28;20092;-80
2023/08/22 00:46:55;;;;;;;12.18;8.60;;;;;;;25.59;nan;95573.38;5072330;28;20040;-80
2023/08/22 00:49:21;;;;;;;11.77;8.90;;;;;;;25.45;nan;95547.88;5074508;28;20394;-80
2023/08/22 00:51:47;;;;;;;12.88;8.88;;;;;;;25.37;nan;95563.25;5074500;28;20123;-80
2023/08/22 00:54:14;;;;;;;10.77;8.52;;;;;;;25.40;nan;95576.09;5073350;28;20040;-80
2023/08/22 00:56:41;;;;;;;11.52;8.73;;;;;;;25.22;nan;95551.31;5073104;28;20092;-80
2023/08/22 00:59:07;;;;;;;12.48;8.77;;;;;;;25.51;nan;95587.16;5073261;28;20040;-80
2023/08/22 01:01:33;;;;;;;14.77;9.20;;;;;;;24.48;nan;95423.06;5074759;28;20442;-81
2023/08/22 01:03:58;;;;;;;14.57;9.05;;;;;;;24.74;nan;95471.22;5074370;28;20036;-81
2023/08/22 01:07:05;;;;;;;15.77;9.43;;;;;;;25.46;nan;95582.03;5072392;28;20027;-81
2023/08/22 01:09:33;;;;;;;14.30;9.35;;;;;;;25.41;nan;95585.78;5074523;28;20131;-81
2023/08/22 01:12:06;;;;;;;12.15;9.50;;;;;;;25.32;nan;95580.59;5073433;28;20117;-81
2023/08/22 01:14:36;;;;;;;15.43;8.98;;;;;;;25.09;nan;95555.31;5073167;28;20024;-81
2023/08/22 01:17:03;;;;;;;11.30;9.02;;;;;;;25.10;nan;95558.81;5075128;28;20029;-81
2023/08/22 01:19:29;;;;;;;12.10;9.23;;;;;;;25.13;nan;95571.66;5074919;28;20350;-81
2023/08/22 01:21:55;;;;;;;17.38;9.57;;;;;;;24.94;nan;95543.41;5073398;28;20025;-81
2023/08/22 01:24:20;;;;;;;15.15;9.13;;;;;;;25.14;nan;95570.53;5073011;28;20104;-81
2023/08/22 01:26:49;;;;;;;16.60;9.55;;;;;;;24.47;nan;95483.06;5073291;28;20044;-81
2023/08/22 01:29:26;;;;;;;14.00;9.45;;;;;;;24.95;nan;95561.22;5073324;28;20060;-80
2023/08/22 01:32:17;;;;;;;21.38;10.45;;;;;;;25.17;nan;95581.47;5073497;28;20191;-81
2023/08/22 01:34:44;;;;;;;14.48;9.48;;;;;;;24.84;nan;95567.53;5073164;28;20097;-81
2023/08/22 01:37:11;;;;;;;14.10;9.00;;;;;;;25.02;nan;95567.97;5074936;28;20071;-81
2023/08/22 01:39:38;;;;;;;14.98;8.77;;;;;;;25.20;nan;95588.88;5074544;28;20044;-81
2023/08/22 01:42:05;;;;;;;24.10;10.13;;;;;;;24.34;nan;95457.97;5074111;28;20050;-81
2023/08/22 01:44:30;;;;;;;13.98;9.13;;;;;;;25.00;nan;95554.75;5074179;28;20044;-81
2023/08/22 01:46:56;;;;;;;14.68;10.60;;;;;;;25.21;nan;95587.75;5071497;28;20113;-81
2023/08/22 01:49:22;;;;;;;12.43;9.98;;;;;;;25.19;nan;95592.72;5072638;28;20035;-81
2023/08/22 01:51:47;;;;;;;13.60;9.57;;;;;;;25.07;nan;95573.09;5072964;28;20131;-81
2023/08/22 01:54:13;;;;;;;15.18;9.93;;;;;;;24.87;nan;95553.28;5072960;28;20601;-80
2023/08/22 01:56:39;;;;;;;11.75;9.35;;;;;;;24.90;nan;95583.22;5073376;28;20042;-81
2023/08/22 01:59:04;;;;;;;12.95;9.95;;;;;;;24.49;nan;95530.34;5074752;28;20036;-81
2023/08/22 02:01:30;;;;;;;12.18;9.57;;;;;;;24.85;nan;95588.91;5072975;28;20029;-81
2023/08/22 02:04:01;;;;;;;19.83;10.00;;;;;;;24.64;nan;95557.81;5073760;28;20043;-81
2023/08/22 02:06:26;;;;;;;;;;;;;;;24.84;nan;95583.81;5076038;28;20495;-81
2023/08/22 02:08:52;;;;;;;17.00;9.10;;;;;;;24.79;nan;95590.31;5075767;28;19923;-81
2023/08/22 02:11:18;;;;;;;16.73;9.65;;;;;;;24.70;nan;95573.44;5073765;28;20070;-80
2023/08/22 02:13:44;;;;;;;15.75;9.68;;;;;;;24.78;nan;95582.53;5073675;28;20033;-80
2023/08/22 02:16:09;;;;;;;12.40;9.48;;;;;;;24.65;nan;95568.28;5073289;28;20040;-81
2023/08/22 02:18:35;;;;;;;11.98;9.07;;;;;;;24.71;nan;95588.59;5072983;28;20482;-81
2023/08/22 02:21:00;;;;;;;16.17;9.32;;;;;;;24.63;nan;95584.13;5074473;28;20090;-81
2023/08/22 02:23:26;;;;;;;15.93;9.95;;;;;;;24.66;nan;95588.03;5070504;28;20415;-80
2023/08/22 02:25:52;;;;;;;13.15;10.05;;;;;;;24.47;nan;95562.47;5072150;28;20605;-80
2023/08/22 02:28:17;;;;;;;20.20;10.60;;;;;;;24.38;nan;95533.97;5070352;28;20115;-80
2023/08/22 02:30:43;;;;;;;15.27;9.55;;;;;;;24.33;nan;95543.19;5072046;28;20044;-80
2023/08/22 02:33:08;;;;;;;14.75;9.52;;;;;;;24.62;nan;95585.28;5070451;28;20123;-80
2023/08/22 02:35:34;;;;;;;15.02;10.30;;;;;;;24.39;nan;95573.50;5070828;28;20487;-80
2023/08/22 02:37:59;;;;;;;13.50;8.95;;;;;;;24.44;nan;95584.84;5070116;28;20155;-81
2023/08/22 02:40:24;;;;;;;16.45;10.15;;;;;;;23.89;nan;95509.16;5070577;28;20032;-80
2023/08/22 02:42:52;;;;;;;18.52;9.20;;;;;;;23.85;nan;95493.63;5072054;28;20036;-80
2023/08/22 02:45:17;;;;;;;17.73;9.50;;;;;;;24.13;nan;95541.47;5074447;28;20494;-80
2023/08/22 02:47:43;;;;;;;14.35;9.60;;;;;;;24.48;nan;95599.28;5074890;28;20035;-80
2023/08/22 02:50:09;;;;;;;22.52;10.85;;;;;;;24.18;nan;95547.41;5075269;28;20442;-80
2023/08/22 02:52:35;;;;;;;19.25;10.80;;;;;;;24.38;nan;95572.72;5073513;28;20431;-80
2023/08/22 02:55:01;;;;;;;14.23;9.77;;;;;;;24.06;nan;95542.09;5073510;28;20034;-80
2023/08/22 02:57:26;;;;;;;15.23;10.05;;;;;;;24.47;nan;95607.78;5074151;28;20040;-81
2023/08/22 02:59:52;;;;;;;19.63;10.55;;;;;;;24.32;nan;95589.59;5073366;28;20070;-80
2023/08/22 03:02:17;;;;;;;15.63;9.93;;;;;;;23.72;nan;95494.06;5075016;28;20191;-80
2023/08/22 03:04:44;;;;;;;18.63;10.95;;;;;;;24.13;nan;95565.88;5074382;28;20032;-80
2023/08/22 03:07:10;;;;;;;15.95;10.00;;;;;;;24.30;nan;95600.00;5073154;28;20067;-80
2023/08/22 03:09:38;;;;;;;18.35;10.15;;;;;;;23.77;nan;95537.91;5074005;28;20028;-80
2023/08/22 03:12:04;;;;;;;13.23;9.05;;;;;;;24.11;nan;95582.47;5074600;28;20039;-80
2023/08/22 03:14:30;;;;;;;15.80;9.80;;;;;;;23.92;nan;95557.22;5074410;28;20572;-81
2023/08/22 03:16:55;;;;;;;16.58;10.88;;;;;;;23.90;nan;95556.78;5074397;28;20170;-80
2023/08/22 03:19:21;;;;;;;16.40;10.18;;;;;;;24.11;nan;95589.81;5072591;28;20053;-80
2023/08/22 03:21:46;;;;;;;23.65;10.75;;;;;;;24.19;nan;95599.69;5073567;28;20431;-80
2023/08/22 03:24:12;;;;;;;15.40;10.45;;;;;;;23.91;nan;95558.34;5074070;28;20040;-80
2023/08/22 03:26:37;;;;;;;16.27;10.43;;;;;;;24.15;nan;95620.50;5072845;28;20102;-80
2023/08/22 03:29:02;;;;;;;20.17;11.30;;;;;;;23.94;nan;95618.06;5072370;28;20028;-80
2023/08/22 03:31:28;;;;;;;20.35;11.02;;;;;;;23.44;nan;95549.00;5074143;28;20094;-81
2023/08/22 03:33:54;;;;;;;16.45;11.65;;;;;;;23.87;nan;95617.09;5072711;28;20037;-82
2023/08/22 03:36:20;;;;;;;17.70;11.10;;;;;;;23.88;nan;95622.13;5073418;28;20510;-81
2023/08/22 03:38:48;;;;;;;19.83;12.00;;;;;;;23.87;nan;95619.78;5073001;28;20037;-81
2023/08/22 03:41:14;;;;;;;18.73;10.82;;;;;;;23.51;nan;95564.66;5054434;28;20029;-81
2023/08/22 03:43:39;;;;;;;18.55;11.65;;;;;;;23.72;nan;95588.84;5074592;28;20086;-82
2023/08/22 03:46:04;;;;;;;20.48;11.43;;;;;;;23.59;nan;95563.72;5073454;28;20429;-81
2023/08/22 03:48:30;;;;;;;18.88;11.73;;;;;;;23.99;nan;95615.06;5073101;28;20033;-81
2023/08/22 03:50:56;;;;;;;20.08;11.68;;;;;;;23.80;nan;95585.94;5074758;28;20459;-81
2023/08/22 03:53:22;;;;;;;23.25;12.35;;;;;;;23.88;nan;95632.19;5073160;28;20379;-82
2023/08/22 03:55:48;;;;;;;24.65;12.68;;;;;;;23.74;nan;95608.22;5074665;28;20487;-81
2023/08/22 03:58:13;;;;;;;26.80;13.63;;;;;;;23.48;nan;95557.25;5074986;28;20046;-81
2023/08/22 04:00:38;;;;;;;25.35;13.65;;;;;;;23.92;nan;95617.59;5074131;28;20032;-81
2023/08/22 04:03:04;;;;;;;23.73;13.60;;;;;;;23.75;nan;95598.97;5072966;28;20448;-81
2023/08/22 04:05:30;;;;;;;21.52;12.48;;;;;;;23.45;nan;95549.78;5074764;28;20101;-81
2023/08/22 04:07:55;;;;;;;22.63;12.38;;;;;;;23.89;nan;95610.16;5072441;28;20044;-81
2023/08/22 04:10:21;;;;;;;21.48;12.38;;;;;;;23.73;nan;95598.50;5072430;28;20150;-82
2023/08/22 04:12:46;;;;;;;17.63;12.95;;;;;;;23.67;nan;95586.38;5073290;28;20081;-81
2023/08/22 04:15:13;;;;;;;25.45;13.18;;;;;;;23.63;nan;95590.91;5074510;28;20028;-81
2023/08/22 04:17:41;;;;;;;24.08;14.75;;;;;;;23.58;nan;95597.34;5073462;28;20402;-82
2023/08/22 04:20:09;;;;;;;30.80;14.35;;;;;;;23.70;nan;95615.47;5073073;28;20056;-82
2023/08/22 04:22:34;;;;;;;24.25;13.63;;;;;;;23.33;nan;95568.81;5072732;28;20032;-82
2023/08/22 04:25:00;;;;;;;25.63;13.77;;;;;;;23.25;nan;95531.84;5074425;28;20059;-82
2023/08/22 04:27:26;;;;;;;22.10;13.40;;;;;;;22.06;nan;95345.06;5073009;28;20411;-81
2023/08/22 04:29:52;;;;;;;22.70;13.77;;;;;;;23.87;nan;95641.47;5072928;28;20123;-82
2023/08/22 04:32:17;;;;;;;24.67;13.18;;;;;;;23.99;nan;95638.66;5072196;28;20040;-82
2023/08/22 04:34:43;;;;;;;26.30;13.98;;;;;;;23.99;nan;95644.88;5072552;28;20035;-81
2023/08/22 04:37:08;;;;;;;29.50;14.68;;;;;;;23.87;nan;95628.69;5072692;28;20037;-82
2023/08/22 04:39:33;;;;;;;21.55;14.02;;;;;;;23.82;nan;95607.28;5072493;28;20104;-82
2023/08/22 04:41:59;;;;;;;21.02;13.77;;;;;;;23.97;nan;95646.34;5073739;28;20388;-81
2023/08/22 04:44:24;;;;;;;21.08;13.68;;;;;;;23.90;nan;95632.63;5072496;28;20491;-82
2023/08/22 04:46:50;;;;;;;25.98;14.95;;;;;;;23.90;nan;95657.00;5071368;28;20068;-81
2023/08/22 04:49:15;;;;;;;24.65;14.65;;;;;;;23.83;nan;95625.09;5073419;28;20036;-81
2023/08/22 04:51:41;;;;;;;27.08;15.73;;;;;;;24.08;nan;95666.41;5072614;28;20063;-81
2023/08/22 04:54:07;;;;;;;25.75;17.08;;;;;;;23.72;nan;95629.47;5073202;28;20040;-81
2023/08/22 04:56:32;;;;;;;36.40;18.45;;;;;;;23.76;nan;95647.38;5071376;28;20503;-81
2023/08/22 04:58:58;;;;;;;25.05;16.15;;;;;;;23.87;nan;95668.53;5072706;28;20025;-81
2023/08/22 05:01:23;;;;;;;27.45;17.02;;;;;;;23.73;nan;95623.66;5072288;28;20032;-81
2023/08/22 05:03:50;;;;;;;33.72;17.67;;;;;;;23.94;nan;95658.69;5070996;28;20120;-82
2023/08/22 05:06:16;;;;;;;30.85;18.30;;;;;;;23.96;nan;95663.72;5070650;28;20116;-82
2023/08/22 05:08:41;;;;;;;29.20;18.08;;;;;;;23.84;nan;95630.16;5072317;28;20459;-82
2023/08/22 05:11:06;;;;;;;31.67;17.27;;;;;;;23.71;nan;95627.88;5070991;28;20461;-82
2023/08/22 05:13:32;;;;;;;25.52;16.70;;;;;;;23.80;nan;95620.38;5072603;28;20056;-81
2023/08/22 05:15:57;;;;;;;18.60;14.82;;;;;;;23.41;nan;95581.41;5072072;28;20132;-82
2023/08/22 05:18:23;;;;;;;25.55;14.80;;;;;;;23.50;nan;95627.31;5072232;28;20477;-81
2023/08/22 05:20:51;;;;;;;21.60;14.68;;;;;;;23.74;nan;95673.22;5072091;28;20503;-81
2023/08/22 05:23:17;;;;;;;23.48;14.23;;;;;;;23.96;nan;95663.72;5070718;28;20507;-81
2023/08/22 05:25:43;;;;;;;27.70;14.75;;;;;;;23.15;nan;95519.59;5070738;28;20028;-81
2023/08/22 05:28:08;;;;;;;23.48;15.85;;;;;;;23.48;nan;95581.63;5072444;28;20111;-81
2023/08/22 05:30:38;;;;;;;21.25;14.32;;;;;;;23.79;nan;95641.28;5071058;28;20071;-81
2023/08/22 05:33:03;;;;;;;26.02;16.38;;;;;;;23.94;nan;95666.81;5073194;28;20486;-82
2023/08/22 05:35:29;;;;;;;22.70;15.02;;;;;;;23.76;nan;95614.06;5072981;28;20024;-81
2023/08/22 05:37:55;;;;;;;21.38;15.25;;;;;;;24.11;nan;95642.09;5079196;28;20039;-81
2023/08/22 05:40:20;;;;;;;22.90;14.93;;;;;;;24.26;nan;95656.81;5072358;28;20486;-82
2023/08/22 05:42:46;;;;;;;20.98;14.75;;;;;;;23.95;nan;95614.22;5073234;28;20040;-82
2023/08/22 05:45:11;;;;;;;18.70;14.43;;;;;;;23.85;nan;95604.66;5073284;28;20043;-82
2023/08/22 05:47:37;;;;;;;23.50;15.25;;;;;;;24.02;nan;95646.91;5071344;28;20070;-81
2023/08/22 05:50:03;;;;;;;24.70;15.50;;;;;;;23.39;nan;95529.53;5071528;28;20063;-81
2023/08/22 05:52:30;;;;;;;22.83;15.48;;;;;;;23.80;nan;95585.19;5071618;28;20040;-81
2023/08/22 05:54:55;;;;;;;25.05;15.65;;;;;;;24.20;nan;95641.94;5071736;28;20090;-81
2023/08/22 05:57:22;;;;;;;18.80;14.57;;;;;;;24.18;nan;95612.44;5070720;28;20406;-80
2023/08/22 05:59:48;;;;;;;24.45;15.13;;;;;;;24.61;nan;95656.91;5073241;28;20044;-81
2023/08/22 06:02:14;;;;;;;21.45;14.15;;;;;;;24.42;nan;95602.59;5072550;28;20258;-80
2023/08/22 06:04:39;;;;;;;22.02;14.85;;;;;;;24.54;nan;95624.19;5070467;28;20495;-80
2023/08/22 06:07:05;;;;;;;35.92;15.98;;;;;;;24.52;nan;95624.56;5071061;28;20040;-80
2023/08/22 06:09:31;;;;;;;40.78;16.20;;;;;;;24.57;nan;95648.69;5071627;28;20115;-80
2023/08/22 06:11:56;;;;;;;29.33;15.50;;;;;;;24.47;nan;95603.13;5072109;28;20491;-80
2023/08/22 06:14:22;;;;;;;21.17;14.13;;;;;;;24.65;nan;95619.00;5070260;28;20119;-80
2023/08/22 06:16:47;;;;;;;29.42;14.05;;;;;;;24.78;nan;95644.91;5072629;28;20055;-80
2023/08/22 06:19:13;;;;;;;23.42;14.80;;;;;;;24.53;nan;95587.38;5076066;28;20056;-80
2023/08/22 06:21:38;;;;;;;18.90;12.52;;;;;;;24.77;nan;95603.44;5075575;28;20036;-80
2023/08/22 06:24:04;;;;;;;21.45;14.25;;;;;;;24.52;nan;95577.66;5074144;28;20043;-81
2023/08/22 06:26:30;;;;;;;26.58;15.35;;;;;;;24.64;nan;95587.63;5074368;28;20128;-81
2023/08/22 06:28:55;;;;;;;27.13;14.52;;;;;;;25.16;nan;95653.16;5074919;28;20141;-81
2023/08/22 06:31:21;;;;;;;26.67;12.93;;;;;;;24.71;nan;95550.63;5073861;28;20044;-80
2023/08/22 06:33:46;;;;;;;22.88;15.13;;;;;;;25.08;nan;95612.66;5075829;28;20394;-80
2023/08/22 06:36:12;;;;;;;23.48;13.80;;;;;;;24.98;nan;95601.22;5074361;28;20035;-80
2023/08/22 06:38:37;;;;;;;24.73;13.85;;;;;;;25.13;nan;95615.09;5076098;28;20036;-81
2023/08/22 06:41:05;;;;;;;27.08;14.85;;;;;;;25.05;nan;95635.06;5076335;28;20100;-81
2023/08/22 06:43:30;;;;;;;24.10;14.93;;;;;;;25.05;nan;95633.13;5074977;28;20474;-80
2023/08/22 06:45:57;;;;;;;34.15;14.68;;;;;;;25.19;nan;95647.00;5074576;28;20056;-81
2023/08/22 06:48:22;;;;;;;28.55;15.45;;;;;;;25.01;nan;95607.09;5074401;28;20062;-80
2023/08/22 06:50:51;;;;;;;38.38;15.80;;;;;;;25.23;nan;95615.31;5075733;28;20033;-81
2023/08/22 06:53:16;;;;;;;30.83;15.20;;;;;;;25.44;nan;95630.47;5074077;28;20418;-80
2023/08/22 06:55:46;;;;;;;22.80;15.05;;;;;;;25.45;nan;95642.91;5073779;28;20033;-81
2023/08/22 06:58:11;;;;;;;31.70;14.82;;;;;;;25.46;nan;95649.91;5074171;28;20509;-80
2023/08/22 07:00:37;;;;;;;30.63;14.63;;;;;;;25.28;nan;95590.59;5074345;28;20036;-80
2023/08/22 07:03:02;;;;;;;28.45;15.10;;;;;;;25.54;nan;95616.31;5073401;28;20036;-80
2023/08/22 07:05:28;;;;;;;26.15;15.63;;;;;;;25.66;nan;95635.19;5073879;28;20823;-81
2023/08/22 07:07:54;;;;;;;23.02;16.15;;;;;;;25.62;nan;95628.94;5074834;28;20033;-81
2023/08/22 07:10:20;;;;;;;27.02;14.48;;;;;;;25.45;nan;95592.09;5073416;28;20028;-80
2023/08/22 07:12:45;;;;;;;29.35;15.10;;;;;;;25.47;nan;95608.03;5075804;28;20048;-80
2023/08/22 07:15:11;;;;;;;19.77;14.18;;;;;;;25.65;nan;95611.91;5075617;28;20032;-80
2023/08/22 07:17:36;;;;;;;22.05;14.43;;;;;;;25.66;nan;95611.53;5073454;28;20028;-80
2023/08/22 07:20:03;;;;;;;23.15;13.82;;;;;;;25.73;nan;95635.34;5075558;28;20133;-80
2023/08/22 07:22:28;;;;;;;24.75;15.45;;;;;;;25.63;nan;95598.66;5074141;28;20401;-81
2023/08/22 07:24:53;;;;;;;25.58;14.35;;;;;;;25.95;nan;95634.59;5075841;28;20056;-80
2023/08/22 07:27:21;;;;;;;28.10;14.85;;;;;;;25.67;nan;95596.81;5073442;28;20561;-81
2023/08/22 07:29:46;;;;;;;21.85;13.85;;;;;;;25.77;nan;95587.31;5075158;28;20036;-80
2023/08/22 07:32:12;;;;;;;18.27;13.45;;;;;;;26.12;nan;95608.88;5075663;28;20467;-80
2023/08/22 07:34:37;;;;;;;23.95;13.95;;;;;;;26.23;nan;95609.84;5074251;28;20067;-80
2023/08/22 07:37:03;;;;;;;22.80;13.75;;;;;;;26.10;nan;95581.25;5073382;28;20029;-81
2023/08/22 07:39:28;;;;;;;18.27;13.80;;;;;;;25.88;nan;95546.72;5075940;28;20182;-80
2023/08/22 07:41:54;;;;;;;25.45;14.18;;;;;;;26.26;nan;95584.69;5075063;28;20032;-81
2023/08/22 07:44:20;;;;;;;22.77;16.15;;;;;;;26.19;nan;95573.66;5075306;28;20044;-80
2023/08/22 07:46:45;;;;;;;25.27;14.13;;;;;;;26.08;nan;95548.25;5075240;28;20041;-81
2023/08/22 07:49:10;;;;;;;28.13;15.00;;;;;;;26.43;nan;95594.28;5075607;28;20042;-81
2023/08/22 07:51:36;;;;;;;33.13;14.20;;;;;;;26.69;nan;95629.66;5073871;28;20035;-81
2023/08/22 07:54:03;;;;;;;20.58;13.27;;;;;;;26.54;nan;95580.84;5074002;28;20123;-80
2023/08/22 07:56:28;;;;;;;22.48;13.40;;;;;;;26.82;nan;95624.78;5074468;28;20032;-81
2023/08/22 07:58:53;;;;;;;23.88;14.35;;;;;;;26.41;nan;95534.03;5073501;28;20453;-81
2023/08/22 08:01:19;;;;;;;27.45;14.20;;;;;;;26.50;nan;95557.09;5075207;28;20039;-81
2023/08/22 08:03:44;;;;;;;27.95;13.10;;;;;;;27.02;nan;95611.88;5074989;28;20028;-81
2023/08/22 08:06:11;;;;;;;28.00;14.35;;;;;;;27.01;nan;95616.53;5073468;28;20036;-82
2023/08/22 08:08:36;;;;;;;26.65;13.30;;;;;;;26.96;nan;95605.19;5073980;28;20040;-81
2023/08/22 08:11:02;;;;;;;19.00;12.82;;;;;;;27.06;nan;95612.72;5072817;28;20033;-82
2023/08/22 08:13:28;;;;;;;26.98;12.38;;;;;;;27.10;nan;95613.53;5073746;28;20039;-82
2023/08/22 08:15:53;;;;;;;22.35;12.05;;;;;;;27.01;nan;95597.47;5075631;28;20415;-82
2023/08/22 08:18:20;;;;;;;24.67;12.18;;;;;;;27.16;nan;95617.50;5074160;28;20029;-81
2023/08/22 08:20:46;;;;;;;24.48;12.55;;;;;;;27.04;nan;95598.69;5075439;28;20499;-82
2023/08/22 08:23:11;;;;;;;24.30;12.50;;;;;;;26.64;nan;95526.59;5075446;28;20032;-81
2023/08/22 08:25:37;;;;;;;25.95;12.55;;;;;;;27.17;nan;95603.53;5075588;28;20040;-81
2023/08/22 08:28:05;;;;;;;20.67;11.73;;;;;;;27.18;nan;95582.53;5075901;28;20040;-82
2023/08/22 08:30:31;;;;;;;28.05;11.98;;;;;;;27.32;nan;95580.00;5074875;28;20035;-81
2023/08/22 08:32:56;;;;;;;26.33;11.90;;;;;;;27.26;nan;95560.47;5076580;28;20267;-81
2023/08/22 08:35:22;;;;;;;18.55;11.35;;;;;;;27.59;nan;95597.88;5057862;28;20050;-82
2023/08/22 08:37:48;;;;;;;25.95;11.75;;;;;;;27.56;nan;95582.25;5076504;28;20400;-81
2023/08/22 08:40:14;;;;;;;24.88;11.02;;;;;;;27.85;nan;95607.06;5075654;28;20032;-81
2023/08/22 08:42:41;;;;;;;15.15;10.85;;;;;;;27.91;nan;95611.84;5074627;28;20474;-81
2023/08/22 08:45:07;;;;;;;24.95;10.90;;;;;;;27.90;nan;95601.31;5075822;28;20087;-82
2023/08/22 08:47:33;;;;;;;16.88;9.93;;;;;;;27.59;nan;95562.44;5074203;28;20118;-82
2023/08/22 08:50:00;;;;;;;20.10;11.07;;;;;;;27.88;nan;95590.78;5075844;28;20032;-82
2023/08/22 08:52:26;;;;;;;17.10;10.50;;;;;;;27.99;nan;95599.06;5076833;28;20028;-81
2023/08/22 08:54:53;;;;;;;16.10;10.85;;;;;;;27.91;nan;95583.81;5077606;28;20050;-82
2023/08/22 08:57:19;;;;;;;13.30;10.63;;;;;;;27.96;nan;95561.63;5078884;28;20506;-82
2023/08/22 08:59:45;;;;;;;22.42;11.05;;;;;;;28.10;nan;95575.41;5078081;28;20032;-82
2023/08/22 09:02:15;;;;;;;19.40;9.65;;;;;;;28.45;nan;95596.00;5077806;28;20040;-81
2023/08/22 09:04:41;;;;;;;13.43;9.15;;;;;;;28.38;nan;95570.19;5078024;28;20125;-82
2023/08/22 09:07:10;;;;;;;20.92;9.15;;;;;;;28.39;nan;95560.06;5075961;28;20044;-81
2023/08/22 09:09:36;;;;;;;21.80;9.27;;;;;;;28.54;nan;95569.16;5075188;28;20490;-82
2023/08/22 09:12:07;;;;;;;20.58;9.85;;;;;;;28.52;nan;95546.94;5075648;28;20064;-82
2023/08/22 09:14:33;;;;;;;16.85;7.65;;;;;;;28.82;nan;95579.53;5074688;28;20119;-82
2023/08/22 09:17:02;;;;;;;17.15;7.55;;;;;;;28.66;nan;95531.44;5074675;28;20506;-81
2023/08/22 09:19:34;;;;;;;10.90;7.28;;;;;;;28.98;nan;95560.91;5074573;28;20056;-82
2023/08/22 09:22:03;;;;;;;12.27;7.13;;;;;;;29.04;nan;95562.88;5075951;28;20040;-82
2023/08/22 09:24:30;;;;;;;17.25;7.07;;;;;;;29.03;nan;95553.13;5071840;28;20518;-82
2023/08/22 09:26:56;;;;;;;13.80;7.35;;;;;;;29.17;nan;95561.38;5072847;28;20120;-81
2023/08/22 09:29:29;;;;;;;16.35;7.07;;;;;;;29.31;nan;95565.31;5071858;28;20055;-81
2023/08/22 09:32:02;;;;;;;12.45;7.00;;;;;;;29.22;nan;95535.63;5073294;28;20039;-81
2023/08/22 09:34:28;;;;;;;12.77;7.75;;;;;;;29.37;nan;95547.44;5072847;28;20044;-81
2023/08/22 09:36:54;;;;;;;13.88;7.85;;;;;;;29.21;nan;95508.72;5072310;28;20127;-81
2023/08/22 09:39:24;;;;;;;14.48;6.90;;;;;;;29.31;nan;95508.75;5070649;28;20033;-81
2023/08/22 09:42:00;;;;;;;15.70;6.43;;;;;;;29.69;nan;95548.28;5070338;28;20032;-81
2023/08/22 09:44:28;;;;;;;15.82;5.95;;;;;;;29.60;nan;95522.53;5071037;28;20490;-81
2023/08/22 09:46:55;;;;;;;10.07;6.25;;;;;;;29.45;nan;95484.22;5071740;28;20119;-82
2023/08/22 09:49:22;;;;;;;11.43;6.68;;;;;;;30.00;nan;95555.00;5072220;28;20060;-81
2023/08/22 09:51:51;;;;;;;7.72;5.68;;;;;;;29.83;nan;95512.78;5071745;28;20067;-81
2023/08/22 09:54:17;;;;;;;12.35;5.90;;;;;;;30.14;nan;95541.34;5071813;28;20036;-81
2023/08/22 09:56:43;;;;;;;10.82;6.10;;;;;;;30.45;nan;95549.94;5071847;28;20040;-81
2023/08/22 09:59:13;;;;;;;24.83;6.00;;;;;;;30.74;nan;95495.97;5070763;28;20036;-82
2023/08/22 10:01:39;;;;;;;9.50;5.22;;;;;;;31.66;nan;95532.03;5071925;28;20051;-81
2023/08/22 10:04:05;;;;;;;10.18;5.40;;;;;;;32.64;nan;95537.19;5070785;28;20040;-82
2023/08/22 10:06:33;;;;;;;16.45;6.63;;;;;;;33.38;nan;95513.66;5071689;28;20040;-82
2023/08/22 10:09:05;;;;;;;13.52;5.57;;;;;;;34.10;nan;95479.19;5071355;28;20105;-82
2023/08/22 10:11:32;;;;;;;13.40;6.10;;;;;;;35.00;nan;95508.75;5070837;28;20032;-82
2023/08/22 10:13:57;;;;;;;13.25;5.45;;;;;;;35.71;nan;95510.06;5071337;28;20040;-83
2023/08/22 10:16:29;;;;;;;7.75;5.20;;;;;;;36.06;nan;95491.91;5072608;28;20032;-82
2023/08/22 10:19:02;;;;;;;10.32;5.55;;;;;;;36.52;nan;95480.53;5072533;28;20053;-83
2023/08/22 10:21:32;;;;;;;16.42;5.55;;;;;;;37.24;nan;95515.31;5072447;28;20036;-82
2023/08/22 10:23:59;;;;;;;7.93;5.25;;;;;;;37.86;nan;95511.13;5059947;28;20086;-82
2023/08/22 10:26:47;;;;;;;9.13;5.13;;;;;;;37.91;nan;95509.81;5071421;28;20529;-82
2023/08/22 10:29:13;;;;;;;8.68;4.88;;;;;;;37.90;nan;95514.59;5072092;28;20105;-83
2023/08/22 10:32:00;;;;;;;11.32;4.93;;;;;;;38.31;nan;95502.59;5073519;28;20036;-84
2023/08/22 10:34:46;;;;;;;10.88;5.53;;;;;;;38.63;nan;95493.25;5074522;28;20033;-83
2023/08/22 10:37:12;;;;;;;13.00;4.78;;;;;;;38.86;nan;95497.59;5037322;28;20103;-83
2023/08/22 10:39:39;;;;;;;10.50;5.50;;;;;;;38.90;nan;95503.78;5070896;28;20258;-83
2023/08/22 10:42:05;;;;;;;9.80;4.78;;;;;;;38.93;nan;95466.84;5070247;28;20054;-84
2023/08/22 10:44:31;;;;;;;13.20;5.20;;;;;;;39.44;nan;95503.47;5071342;28;20066;-83
2023/08/22 10:47:01;;;;;;;13.25;5.47;;;;;;;39.33;nan;95481.63;5069196;28;20085;-82
2023/08/22 10:49:34;;;;;;;;;;;;;;;39.21;nan;95498.34;5072337;28;20479;-82
2023/08/22 10:52:04;;;;;;;11.35;5.28;;;;;;;38.70;nan;95486.66;5075214;28;20458;-82
2023/08/22 10:54:31;;;;;;;;;;;;;;;39.13;nan;95500.63;5072873;28;20029;-83
2023/08/22 10:57:15;;;;;;;8.65;5.53;;;;;;;39.10;nan;95473.78;5070370;28;19920;-83
2023/08/22 11:00:01;;;;;;;12.18;6.13;;;;;;;39.24;nan;95466.91;5071546;28;20037;-83
2023/08/22 11:02:33;;;;;;;8.65;5.22;;;;;;;39.59;nan;95479.50;5071796;28;20118;-83
2023/08/22 11:05:00;;;;;;;9.93;5.65;;;;;;;39.79;nan;95490.22;5074175;28;20471;-83
2023/08/22 11:07:27;;;;;;;15.60;5.55;;;;;;;39.47;nan;95455.38;5074450;28;20033;-82
2023/08/22 11:09:57;;;;;;;13.13;5.30;;;;;;;39.31;nan;95472.19;5074199;28;20551;-83
2023/08/22 11:12:24;;;;;;;10.98;5.15;;;;;;;39.40;nan;95485.38;5075412;28;20040;-83
2023/08/22 11:14:52;;;;;;;12.48;5.50;;;;;;;39.12;nan;95489.97;5075092;28;20120;-83
2023/08/22 11:17:19;;;;;;;10.43;4.78;;;;;;;38.58;nan;95466.09;5073469;28;20128;-83
2023/08/22 11:19:46;;;;;;;7.90;5.70;;;;;;;38.74;nan;95484.56;5075426;28;20056;-83
2023/08/22 11:22:12;;;;;;;6.10;4.70;;;;;;;38.54;nan;95487.59;5075585;28;20498;-83
2023/08/22 11:24:42;;;;;;;8.65;5.15;;;;;;;37.89;nan;95463.19;5074646;28;20150;-83
2023/08/22 11:27:07;;;;;;;7.22;5.75;;;;;;;37.63;nan;95454.13;5073349;28;20028;-83
2023/08/22 11:30:02;;;;;;;10.88;5.65;;;;;;;37.45;nan;95479.56;5074963;28;20399;-83
2023/08/22 11:32:29;;;;;;;11.00;5.72;;;;;;;37.23;nan;95459.25;5064824;28;20036;-82
2023/08/22 11:35:01;;;;;;;10.40;5.20;;;;;;;37.62;nan;95482.22;5073310;28;20089;-83
2023/08/22 11:37:29;;;;;;;10.02;5.38;;;;;;;37.90;nan;95472.28;5073287;28;20421;-83